Hatch, New Mexico
Current Conditions -  °F | °C
As of 6:55 PM on Monday 24 Nov 2014 (Local Time) from KLRU Reporting Station
Clear Clear  
Wind Chill: 43°   Ceiling: Unl
Heat Index: 49°   Visibility: 10mi
Dew Point:   Wind: 17mph
Humidity: 14%   Direction: 360°N
Pressure: 30.15"   Gusts: 29mph
Location:  32.67°N, 107.15°W
Report Text: KLRU 250155Z AUTO 36015G25KT 10SM CLR 10/M17 A3015 RMK AO2 T00961169
Loading
Personal Weather Stations






























Interactive Weather Map New forecast layout! Learn more

10-Day Weather Forecast

Advertisements
Track Severe Weather on mobile